createdAt,value
2018-10-11T00:00:57.765Z,15.40
2018-10-11T00:03:26.246Z,15.40
2018-10-11T00:05:54.230Z,15.40
2018-10-11T00:08:22.384Z,15.30
2018-10-11T00:10:50.492Z,15.40
2018-10-11T00:13:18.720Z,15.30
2018-10-11T00:15:46.734Z,15.30
2018-10-11T00:18:14.738Z,15.10
2018-10-11T00:20:42.875Z,15.20
2018-10-11T00:23:10.841Z,15.30
2018-10-11T00:25:38.796Z,15.30
2018-10-11T00:28:06.818Z,15.20
2018-10-11T00:30:34.808Z,15.00
2018-10-11T00:33:02.832Z,15.00
2018-10-11T00:35:31.483Z,14.90
2018-10-11T00:37:59.737Z,14.80
2018-10-11T00:40:27.732Z,14.70
2018-10-11T00:42:55.753Z,14.60
2018-10-11T00:45:24.282Z,14.50
2018-10-11T00:47:52.348Z,14.40
2018-10-11T00:50:20.307Z,14.30
2018-10-11T00:52:48.266Z,14.30
2018-10-11T00:55:16.243Z,14.20
2018-10-11T00:57:44.192Z,14.00
2018-10-11T01:00:12.230Z,13.90
2018-10-11T01:02:40.573Z,13.80
2018-10-11T01:05:08.633Z,13.70
2018-10-11T01:07:36.618Z,13.50
2018-10-11T01:10:04.765Z,13.50
2018-10-11T01:12:32.965Z,13.30
2018-10-11T01:15:00.944Z,13.20
2018-10-11T01:17:28.962Z,13.30
2018-10-11T01:19:56.943Z,13.20
2018-10-11T01:22:24.898Z,13.30
2018-10-11T01:24:52.882Z,13.30
2018-10-11T01:27:20.868Z,13.30
2018-10-11T01:29:48.910Z,13.30
2018-10-11T01:32:17.243Z,13.30
2018-10-11T01:34:45.274Z,13.40
2018-10-11T01:37:13.345Z,13.40
2018-10-11T01:39:41.301Z,13.40
2018-10-11T01:42:09.277Z,13.40
2018-10-11T01:44:37.265Z,13.30
2018-10-11T01:47:05.508Z,13.40
2018-10-11T01:49:33.528Z,13.30
2018-10-11T01:52:01.530Z,13.30
2018-10-11T01:54:29.502Z,13.30
2018-10-11T01:56:57.844Z,13.50
2018-10-11T01:59:25.865Z,13.50
2018-10-11T02:01:54.221Z,13.70
2018-10-11T02:04:22.201Z,13.80
2018-10-11T02:06:50.548Z,13.90
2018-10-11T02:09:18.591Z,13.90
2018-10-11T02:11:46.559Z,14.00
2018-10-11T02:14:14.505Z,13.90
2018-10-11T02:16:42.467Z,14.00
2018-10-11T02:19:10.699Z,14.10
2018-10-11T02:21:38.970Z,14.10
2018-10-11T02:24:07.433Z,14.10
2018-10-11T02:26:35.729Z,14.00
2018-10-11T02:29:03.822Z,14.00
2018-10-11T02:31:31.745Z,13.90
2018-10-11T02:33:59.756Z,13.80
2018-10-11T02:36:27.721Z,13.60
2018-10-11T02:38:55.655Z,13.60
2018-10-11T02:41:23.627Z,13.50
2018-10-11T02:43:51.585Z,13.50
2018-10-11T02:46:19.552Z,13.40
2018-10-11T02:48:47.543Z,13.10
2018-10-11T02:51:15.495Z,12.90
2018-10-11T02:53:43.569Z,12.70
2018-10-11T02:56:12.625Z,12.50
2018-10-11T02:58:54.612Z,12.40
2018-10-11T03:01:22.668Z,12.40
2018-10-11T03:03:56.638Z,12.30
2018-10-11T03:06:24.749Z,12.20
2018-10-11T03:08:52.841Z,12.20
2018-10-11T03:11:20.883Z,12.10
2018-10-11T03:13:49.128Z,12.10
2018-10-11T03:16:17.538Z,12.00
2018-10-11T03:18:45.531Z,11.80
2018-10-11T03:21:13.483Z,11.70
2018-10-11T03:23:41.755Z,11.70
2018-10-11T03:26:09.703Z,11.80
2018-10-11T03:28:37.661Z,11.80
2018-10-11T03:31:05.970Z,11.80
2018-10-11T03:33:33.921Z,11.80
2018-10-11T03:36:02.119Z,11.90
2018-10-11T03:38:30.394Z,11.90
2018-10-11T03:40:59.484Z,11.80
2018-10-11T03:43:27.419Z,11.80
2018-10-11T03:45:55.385Z,11.70
2018-10-11T03:48:23.664Z,11.60
2018-10-11T03:50:51.611Z,11.50
2018-10-11T03:53:19.634Z,11.50
2018-10-11T03:55:47.649Z,11.50
2018-10-11T03:58:15.599Z,11.60
2018-10-11T04:00:43.589Z,11.70
2018-10-11T04:03:11.496Z,11.70
2018-10-11T04:05:39.436Z,11.70
2018-10-11T04:08:07.308Z,11.60
2018-10-11T04:10:35.216Z,11.60
2018-10-11T04:13:03.078Z,11.60
2018-10-11T04:15:30.984Z,11.60
2018-10-11T04:17:58.847Z,11.60
2018-10-11T04:20:26.961Z,11.50
2018-10-11T04:22:54.779Z,11.60
2018-10-11T04:25:22.633Z,11.70
2018-10-11T04:27:50.468Z,11.60
2018-10-11T04:30:18.300Z,11.50
2018-10-11T04:32:46.322Z,11.40
2018-10-11T04:35:14.178Z,11.30
2018-10-11T04:37:42.034Z,11.20
2018-10-11T04:40:09.901Z,11.10
2018-10-11T04:42:37.824Z,11.10
2018-10-11T04:45:05.664Z,11.10
2018-10-11T04:47:33.503Z,11.10
2018-10-11T04:50:01.356Z,11.10
2018-10-11T04:52:29.571Z,11.10
2018-10-11T04:54:57.433Z,11.20
2018-10-11T04:57:25.247Z,11.30
2018-10-11T04:59:53.290Z,11.40
2018-10-11T05:02:21.076Z,11.40
2018-10-11T05:04:49.954Z,11.70
2018-10-11T05:07:18.106Z,11.80
2018-10-11T05:09:45.979Z,11.80
2018-10-11T05:12:13.993Z,11.90
2018-10-11T05:14:42.597Z,11.90
2018-10-11T05:17:10.534Z,11.90
2018-10-11T05:19:39.280Z,11.90
2018-10-11T05:22:07.207Z,12.00
2018-10-11T05:24:35.089Z,12.00
2018-10-11T05:27:02.926Z,12.10
2018-10-11T05:29:30.764Z,12.00
2018-10-11T05:31:58.689Z,12.10
2018-10-11T05:34:26.662Z,12.10
2018-10-11T05:36:54.548Z,12.00
2018-10-11T05:39:22.493Z,12.10
2018-10-11T05:41:50.487Z,12.10
2018-10-11T05:44:18.363Z,12.20
2018-10-11T05:46:46.269Z,12.30
2018-10-11T05:49:14.498Z,12.20
2018-10-11T05:51:42.388Z,12.40
2018-10-11T05:54:10.415Z,12.40
2018-10-11T05:56:41.278Z,12.40
2018-10-11T05:59:09.636Z,12.40
2018-10-11T06:01:37.539Z,12.50
2018-10-11T06:04:06.814Z,12.60
2018-10-11T06:06:35.397Z,12.70
2018-10-11T06:09:04.477Z,12.80
2018-10-11T06:11:32.367Z,12.80
2018-10-11T06:14:00.368Z,12.90
2018-10-11T06:16:28.243Z,13.00
2018-10-11T06:18:56.137Z,13.10
2018-10-11T06:21:24.113Z,13.20
2018-10-11T06:23:51.976Z,13.20
2018-10-11T06:26:19.873Z,13.40
2018-10-11T06:28:48.504Z,13.50
2018-10-11T06:31:16.510Z,13.70
2018-10-11T06:33:44.681Z,13.90
2018-10-11T06:36:13.326Z,14.10
2018-10-11T06:38:41.919Z,14.40
2018-10-11T06:41:09.963Z,14.60
2018-10-11T06:43:38.678Z,14.70
2018-10-11T06:46:07.292Z,14.90
2018-10-11T06:48:35.528Z,15.10
2018-10-11T06:51:03.504Z,15.30
2018-10-11T06:53:31.406Z,15.40
2018-10-11T06:55:59.287Z,15.50
2018-10-11T06:58:27.166Z,15.50
2018-10-11T07:00:55.438Z,15.90
2018-10-11T07:03:23.247Z,15.90
2018-10-11T07:05:51.169Z,16.20
2018-10-11T07:08:18.989Z,16.50
2018-10-11T07:10:47.340Z,16.60
2018-10-11T07:13:15.201Z,16.80
2018-10-11T07:15:43.101Z,17.20
2018-10-11T07:18:10.919Z,17.10
2018-10-11T07:20:38.733Z,17.10
2018-10-11T07:23:06.570Z,17.00
2018-10-11T07:25:34.432Z,17.00
2018-10-11T07:28:02.293Z,17.00
2018-10-11T07:30:30.156Z,17.10
2018-10-11T07:32:57.987Z,17.10
2018-10-11T07:35:26.042Z,17.20
2018-10-11T07:37:53.762Z,17.40
2018-10-11T07:40:21.639Z,17.50
2018-10-11T07:42:49.674Z,17.80
2018-10-11T07:45:17.848Z,18.00
2018-10-11T07:47:45.766Z,18.30
2018-10-11T07:50:13.594Z,18.30
2018-10-11T07:52:41.784Z,18.30
2018-10-11T07:55:09.549Z,18.50
2018-10-11T07:57:37.421Z,18.70
2018-10-11T08:00:05.708Z,18.90
2018-10-11T08:02:33.604Z,18.90
2018-10-11T08:05:01.465Z,18.70
2018-10-11T08:07:29.404Z,18.90
2018-10-11T08:09:57.236Z,19.10
2018-10-11T08:12:25.415Z,19.30
2018-10-11T08:14:53.308Z,19.50
2018-10-11T08:17:21.416Z,19.50
2018-10-11T08:19:49.147Z,19.50
2018-10-11T08:22:17.295Z,19.60
2018-10-11T08:24:45.226Z,19.50
2018-10-11T08:27:13.401Z,19.00
2018-10-11T08:29:41.277Z,18.90
2018-10-11T08:32:09.137Z,18.80
2018-10-11T08:34:37.169Z,19.00
2018-10-11T08:37:05.046Z,19.00
2018-10-11T08:39:32.934Z,19.10
2018-10-11T08:42:00.769Z,19.20
2018-10-11T08:44:28.644Z,19.10
2018-10-11T08:46:56.558Z,19.00
2018-10-11T08:49:24.431Z,19.40
2018-10-11T08:51:52.240Z,19.50
2018-10-11T08:54:25.837Z,19.70
2018-10-11T08:56:53.866Z,19.80
2018-10-11T08:59:21.883Z,19.80
2018-10-11T09:01:49.639Z,19.40
2018-10-11T09:04:17.542Z,19.80
2018-10-11T09:06:45.349Z,19.50
2018-10-11T09:09:13.170Z,19.60
2018-10-11T09:11:41.033Z,19.60
2018-10-11T09:14:08.869Z,18.90
2018-10-11T09:16:37.242Z,19.00
2018-10-11T09:19:05.122Z,19.50
2018-10-11T09:21:32.996Z,19.90
2018-10-11T09:24:01.213Z,19.90
2018-10-11T09:26:29.125Z,20.20
2018-10-11T09:28:57.023Z,20.20
2018-10-11T09:31:25.150Z,20.10
2018-10-11T09:33:53.028Z,20.00
2018-10-11T09:36:20.912Z,19.80
2018-10-11T09:38:49.315Z,19.80
2018-10-11T09:41:17.192Z,20.00
2018-10-11T09:43:45.044Z,20.40
2018-10-11T09:46:12.881Z,20.20
2018-10-11T09:48:45.298Z,20.40
2018-10-11T09:51:17.433Z,20.40
2018-10-11T09:53:45.270Z,20.10
2018-10-11T09:56:13.278Z,20.00
2018-10-11T09:58:41.110Z,19.90
2018-10-11T10:01:14.548Z,20.10
2018-10-11T10:03:42.386Z,20.20
2018-10-11T10:06:10.199Z,20.60
2018-10-11T10:08:38.049Z,20.90
2018-10-11T10:11:05.888Z,20.70
2018-10-11T10:13:33.712Z,20.80
2018-10-11T10:16:01.575Z,20.60
2018-10-11T10:18:29.674Z,20.50
2018-10-11T10:20:57.543Z,20.40
2018-10-11T10:23:25.393Z,20.70
2018-10-11T10:25:53.191Z,20.70
2018-10-11T10:28:21.340Z,20.70
2018-10-11T10:30:54.741Z,20.90
2018-10-11T10:33:23.975Z,21.20
2018-10-11T10:35:52.195Z,21.60
2018-10-11T10:38:21.307Z,21.70
2018-10-11T10:40:50.565Z,21.80
2018-10-11T10:43:21.074Z,21.60
2018-10-11T10:45:50.271Z,21.40
2018-10-11T10:48:20.903Z,21.30
2018-10-11T10:50:49.564Z,21.70
2018-10-11T10:53:18.431Z,22.00
2018-10-11T10:55:47.483Z,22.10
2018-10-11T10:58:16.361Z,22.60
2018-10-11T11:00:44.196Z,22.30
2018-10-11T11:03:12.042Z,22.20
2018-10-11T11:05:39.875Z,21.50
2018-10-11T11:08:07.767Z,21.40
2018-10-11T11:10:35.627Z,21.10
2018-10-11T11:13:03.580Z,21.20
2018-10-11T11:15:31.438Z,21.20
2018-10-11T11:17:59.351Z,21.50
2018-10-11T11:20:27.251Z,21.80
2018-10-11T11:22:56.015Z,21.90
2018-10-11T11:25:23.971Z,21.60
2018-10-11T11:27:51.853Z,21.90
2018-10-11T11:30:19.730Z,22.00
2018-10-11T11:32:47.622Z,22.40
2018-10-11T11:35:15.593Z,22.70
2018-10-11T11:37:43.492Z,22.60
2018-10-11T11:40:11.388Z,22.60
2018-10-11T11:42:39.315Z,22.20
2018-10-11T11:45:07.352Z,22.20
2018-10-11T11:47:35.223Z,22.20
2018-10-11T11:50:03.217Z,22.20
2018-10-11T11:52:31.128Z,21.80
2018-10-11T11:54:59.334Z,22.20
2018-10-11T11:57:27.269Z,22.20
2018-10-11T11:59:55.208Z,22.50
2018-10-11T12:02:23.293Z,22.10
2018-10-11T12:04:51.769Z,21.90
2018-10-11T12:07:20.380Z,21.70
2018-10-11T12:09:48.944Z,21.60
2018-10-11T12:12:49.614Z,21.80
2018-10-11T12:15:18.312Z,21.60
2018-10-11T12:17:46.226Z,21.40
2018-10-11T12:20:14.069Z,21.70
2018-10-11T12:22:42.001Z,21.70
2018-10-11T12:25:10.193Z,21.90
2018-10-11T12:27:38.054Z,22.20
2018-10-11T12:30:06.095Z,22.20
2018-10-11T12:32:33.965Z,22.40
2018-10-11T12:35:03.198Z,22.30
2018-10-11T12:37:31.079Z,22.30
2018-10-11T12:39:59.743Z,22.30
2018-10-11T12:42:27.747Z,22.40
2018-10-11T12:44:55.739Z,22.30
2018-10-11T12:47:24.276Z,22.50
2018-10-11T12:49:52.234Z,22.50
2018-10-11T12:52:20.147Z,22.30
2018-10-11T12:54:48.768Z,22.30
2018-10-11T12:57:20.370Z,22.30
2018-10-11T12:59:45.171Z,22.50
2018-10-11T13:02:13.083Z,22.40
2018-10-11T13:04:41.107Z,22.20
2018-10-11T13:07:09.249Z,22.30
2018-10-11T13:09:38.086Z,22.40
2018-10-11T13:12:05.990Z,22.20
2018-10-11T13:14:33.909Z,22.40
2018-10-11T13:17:01.818Z,22.40
2018-10-11T13:19:29.733Z,22.40
2018-10-11T13:21:57.648Z,22.40
2018-10-11T13:24:25.544Z,22.60
2018-10-11T13:26:53.474Z,22.60
2018-10-11T13:29:21.360Z,22.40
2018-10-11T13:31:49.537Z,22.70
2018-10-11T13:34:17.376Z,22.70
2018-10-11T13:36:47.801Z,22.80
2018-10-11T13:39:18.769Z,22.50
2018-10-11T13:41:48.885Z,22.60
2018-10-11T13:44:18.841Z,22.60
2018-10-11T13:46:49.131Z,22.30
2018-10-11T13:49:17.042Z,22.30
2018-10-11T13:51:44.884Z,22.40
2018-10-11T13:54:17.760Z,22.70
2018-10-11T13:56:50.437Z,22.70
2018-10-11T13:59:15.185Z,22.50
2018-10-11T14:01:41.952Z,22.40
2018-10-11T14:04:09.809Z,22.50
2018-10-11T14:06:37.650Z,22.50
2018-10-11T14:09:08.515Z,22.50
2018-10-11T14:11:36.573Z,22.50
2018-10-11T14:14:04.472Z,22.40
2018-10-11T14:16:32.410Z,22.30
2018-10-11T14:19:00.295Z,22.00
2018-10-11T14:21:28.630Z,22.00
2018-10-11T14:23:56.530Z,22.20
2018-10-11T14:26:24.653Z,22.10
2018-10-11T14:28:53.420Z,22.00
2018-10-11T14:31:22.298Z,22.10
2018-10-11T14:33:50.782Z,22.30
2018-10-11T14:36:19.229Z,22.40
2018-10-11T14:38:47.083Z,22.00
2018-10-11T14:41:15.119Z,22.00
2018-10-11T14:43:42.983Z,21.90
2018-10-11T14:46:11.042Z,21.90
2018-10-11T14:48:39.137Z,21.80
2018-10-11T14:51:07.833Z,21.80
2018-10-11T14:53:35.710Z,21.70
2018-10-11T14:56:03.616Z,22.00
2018-10-11T14:58:31.728Z,21.70
2018-10-11T15:00:59.699Z,21.70
2018-10-11T15:03:27.548Z,21.70
2018-10-11T15:05:55.444Z,21.50
2018-10-11T15:08:23.308Z,21.40
2018-10-11T15:10:51.348Z,21.50
2018-10-11T15:13:19.198Z,21.50
2018-10-11T15:15:47.537Z,21.40
2018-10-11T15:18:15.393Z,21.30
2018-10-11T15:20:43.228Z,21.00
2018-10-11T15:23:11.100Z,21.10
2018-10-11T15:25:39.166Z,21.20
2018-10-11T15:28:07.748Z,21.00
2018-10-11T15:30:35.588Z,20.90
2018-10-11T15:33:03.464Z,21.20
2018-10-11T15:35:31.328Z,21.00
2018-10-11T15:37:59.213Z,21.20
2018-10-11T15:40:27.021Z,21.20
2018-10-11T15:42:54.879Z,21.10
2018-10-11T15:45:22.740Z,21.30
2018-10-11T15:47:50.597Z,21.20
2018-10-11T15:50:18.427Z,21.10
2018-10-11T15:52:46.301Z,21.20
2018-10-11T15:55:14.158Z,21.30
2018-10-11T15:57:42.195Z,21.10
2018-10-11T16:00:10.243Z,21.00
2018-10-11T16:02:38.118Z,20.80
2018-10-11T16:05:06.061Z,20.70
2018-10-11T16:07:34.101Z,20.50
2018-10-11T16:10:01.922Z,20.50
2018-10-11T16:12:29.763Z,20.40
2018-10-11T16:14:57.636Z,20.60
2018-10-11T16:17:26.354Z,20.50
2018-10-11T16:19:54.200Z,20.40
2018-10-11T16:22:22.054Z,20.50
2018-10-11T16:24:50.000Z,20.30
2018-10-11T16:27:17.817Z,20.40
2018-10-11T16:29:45.989Z,20.50
2018-10-11T16:32:13.862Z,20.40
2018-10-11T16:34:42.031Z,20.10
2018-10-11T16:37:09.906Z,20.10
2018-10-11T16:39:38.093Z,20.10
2018-10-11T16:42:05.940Z,20.20
2018-10-11T16:44:33.801Z,20.10
2018-10-11T16:47:01.873Z,19.90
2018-10-11T16:49:29.732Z,19.80
2018-10-11T16:51:57.626Z,19.80
2018-10-11T16:54:25.524Z,19.70
2018-10-11T16:56:53.459Z,19.80
2018-10-11T16:59:21.595Z,19.80
2018-10-11T17:01:49.678Z,19.60
2018-10-11T17:04:17.621Z,19.40
2018-10-11T17:06:45.485Z,19.40
2018-10-11T17:09:13.327Z,19.50
2018-10-11T17:11:41.188Z,19.30
2018-10-11T17:14:09.178Z,19.30
2018-10-11T17:16:37.054Z,19.30
2018-10-11T17:19:05.212Z,19.30
2018-10-11T17:21:33.119Z,19.50
2018-10-11T17:24:00.960Z,19.50
2018-10-11T17:26:28.849Z,19.30
2018-10-11T17:28:56.694Z,19.00
2018-10-11T17:31:24.618Z,18.90
2018-10-11T17:33:52.497Z,19.10
2018-10-11T17:36:22.129Z,19.00
2018-10-11T17:38:49.965Z,18.80
2018-10-11T17:41:18.688Z,18.70
2018-10-11T17:43:46.548Z,18.60
2018-10-11T17:46:14.675Z,18.80
2018-10-11T17:48:42.521Z,18.50
2018-10-11T17:51:10.386Z,18.60
2018-10-11T17:53:38.260Z,18.70
2018-10-11T17:56:06.221Z,18.50
2018-10-11T17:58:34.667Z,18.60
2018-10-11T18:01:02.544Z,18.70
2018-10-11T18:03:30.380Z,18.60
2018-10-11T18:05:58.626Z,18.50
2018-10-11T18:08:26.477Z,18.30
2018-10-11T18:10:54.419Z,18.40
2018-10-11T18:13:22.281Z,18.30
2018-10-11T18:15:50.145Z,18.40
2018-10-11T18:18:18.056Z,18.40
2018-10-11T18:20:45.957Z,18.40
2018-10-11T18:23:14.029Z,18.30
2018-10-11T18:25:41.880Z,18.40
2018-10-11T18:28:09.748Z,18.30
2018-10-11T18:30:37.629Z,18.30
2018-10-11T18:33:05.586Z,18.40
2018-10-11T18:35:33.664Z,18.40
2018-10-11T18:38:01.629Z,18.40
2018-10-11T18:40:29.635Z,18.30
2018-10-11T18:42:59.033Z,18.40
2018-10-11T18:45:26.985Z,18.50
2018-10-11T18:47:55.055Z,18.70
2018-10-11T18:50:23.892Z,18.70
2018-10-11T18:52:52.519Z,18.50
2018-10-11T18:55:21.087Z,18.60
2018-10-11T18:57:49.029Z,18.60
2018-10-11T19:00:16.884Z,18.50
2018-10-11T19:02:44.733Z,18.40
2018-10-11T19:05:13.203Z,18.40
2018-10-11T19:07:41.310Z,18.40
2018-10-11T19:10:09.206Z,18.50
2018-10-11T19:12:37.127Z,18.40
2018-10-11T19:15:05.128Z,18.30
2018-10-11T19:17:33.221Z,18.40
2018-10-11T19:20:01.092Z,18.20
2018-10-11T19:22:29.961Z,18.10
2018-10-11T19:24:58.045Z,18.00
2018-10-11T19:27:26.129Z,18.10
2018-10-11T19:29:54.111Z,18.00
2018-10-11T19:32:22.199Z,18.10
2018-10-11T19:34:50.053Z,18.00
2018-10-11T19:37:17.942Z,18.00
2018-10-11T19:39:45.806Z,17.90
2018-10-11T19:42:13.891Z,17.80
2018-10-11T19:44:41.840Z,17.70
2018-10-11T19:47:09.734Z,17.70
2018-10-11T19:49:37.542Z,17.90
2018-10-11T19:52:05.418Z,17.90
2018-10-11T19:54:33.272Z,17.90
2018-10-11T19:57:01.165Z,18.00
2018-10-11T19:59:29.394Z,18.00
2018-10-11T20:01:57.613Z,18.00
2018-10-11T20:04:25.457Z,18.10
2018-10-11T20:06:53.358Z,18.00
2018-10-11T20:09:21.281Z,18.10
2018-10-11T20:11:49.119Z,18.20
2018-10-11T20:14:17.039Z,18.20
2018-10-11T20:16:44.995Z,18.30
2018-10-11T20:19:12.887Z,18.50
2018-10-11T20:21:40.804Z,18.60
2018-10-11T20:24:08.686Z,18.50
2018-10-11T20:26:36.540Z,18.20
2018-10-11T20:29:04.401Z,18.10
2018-10-11T20:31:32.283Z,18.10
2018-10-11T20:34:00.130Z,18.10
2018-10-11T20:36:28.006Z,18.10
2018-10-11T20:38:56.424Z,18.20
2018-10-11T20:41:24.464Z,18.20
2018-10-11T20:43:52.707Z,18.40
2018-10-11T20:46:20.551Z,18.20
2018-10-11T20:48:48.700Z,18.20
2018-10-11T20:51:16.642Z,18.30
2018-10-11T20:53:44.433Z,18.30
2018-10-11T20:56:12.377Z,18.20
2018-10-11T20:58:40.239Z,18.10
2018-10-11T21:01:08.121Z,17.90
2018-10-11T21:03:35.960Z,17.80
2018-10-11T21:06:03.865Z,17.80
2018-10-11T21:08:31.947Z,17.70
2018-10-11T21:10:59.761Z,17.80
2018-10-11T21:13:27.600Z,17.80
2018-10-11T21:15:55.473Z,17.70
2018-10-11T21:18:23.624Z,17.60
2018-10-11T21:20:51.536Z,17.50
2018-10-11T21:23:19.423Z,17.30
2018-10-11T21:25:47.281Z,17.40
2018-10-11T21:28:15.163Z,17.40
2018-10-11T21:30:43.020Z,17.40
2018-10-11T21:33:10.876Z,17.40
2018-10-11T21:35:38.733Z,17.30
2018-10-11T21:38:07.264Z,17.30
2018-10-11T21:40:35.448Z,17.30
2018-10-11T21:43:04.236Z,17.40
2018-10-11T21:45:32.112Z,17.60
2018-10-11T21:48:00.021Z,17.60
2018-10-11T21:50:27.942Z,17.60
2018-10-11T21:52:55.812Z,17.70
2018-10-11T21:55:23.645Z,17.50
2018-10-11T21:57:51.468Z,17.40
2018-10-11T22:00:23.239Z,17.50
2018-10-11T22:02:51.053Z,17.40
2018-10-11T22:05:19.234Z,17.40
2018-10-11T22:07:47.088Z,17.50
2018-10-11T22:10:14.920Z,17.30
2018-10-11T22:12:42.768Z,17.50
2018-10-11T22:15:10.813Z,17.60
2018-10-11T22:17:38.707Z,17.60
2018-10-11T22:20:06.714Z,17.60
2018-10-11T22:22:34.692Z,17.60
2018-10-11T22:25:02.520Z,17.40
2018-10-11T22:27:30.377Z,17.40
2018-10-11T22:29:58.249Z,17.50
2018-10-11T22:32:26.113Z,17.40
2018-10-11T22:34:53.978Z,17.40
2018-10-11T22:37:22.223Z,17.50
2018-10-11T22:39:50.121Z,17.40
2018-10-11T22:42:18.779Z,17.30
2018-10-11T22:44:47.722Z,17.40
2018-10-11T22:47:15.575Z,17.40
2018-10-11T22:49:43.529Z,17.40
2018-10-11T22:52:11.392Z,17.40
2018-10-11T22:54:39.271Z,17.30
2018-10-11T22:57:07.146Z,17.30
2018-10-11T22:59:35.019Z,17.40
2018-10-11T23:02:03.235Z,17.50
2018-10-11T23:04:31.072Z,17.50
2018-10-11T23:06:58.931Z,17.50
2018-10-11T23:09:26.776Z,17.50
2018-10-11T23:11:54.593Z,17.40
2018-10-11T23:14:22.601Z,17.40
2018-10-11T23:16:50.744Z,17.40
2018-10-11T23:19:18.647Z,17.40
2018-10-11T23:21:46.537Z,17.30
2018-10-11T23:24:14.460Z,17.20
2018-10-11T23:26:42.532Z,17.20
2018-10-11T23:29:10.442Z,17.10
2018-10-11T23:31:38.281Z,17.20
2018-10-11T23:34:06.404Z,17.20
2018-10-11T23:36:34.250Z,17.10
2018-10-11T23:39:02.161Z,17.20
2018-10-11T23:41:30.027Z,17.00
2018-10-11T23:43:57.874Z,16.80
2018-10-11T23:46:25.747Z,16.50
2018-10-11T23:48:53.609Z,16.30
2018-10-11T23:51:21.430Z,16.10
2018-10-11T23:53:49.271Z,15.90
2018-10-11T23:56:17.103Z,15.80
2018-10-11T23:58:44.963Z,15.60
